Little Indian, Illinois
Current Conditions -  °F | °C
As of 7:35 AM on Friday 24 Oct 2014 (Local Time) from KIJX Reporting Station
Moderate Fog Moderate Fog  
Wind Chill: 56°   Ceiling: 200
Heat Index: 56°   Visibility: 0mi
Dew Point: 55°   Wind: 3mph
Humidity: 96%   Direction: 250°WSW
Pressure: 30.09"   Gusts: NA
Location:  39.9268°N, 90.2187°W
Report Text: KIJX 241235Z AUTO 25003KT M1/4SM FG OVC002 13/13 A3009 RMK AO2 T01320126
Loading
Personal Weather Stations






























Interactive Weather Map
Tropical Storm Tracking
New forecast layout! Learn more

10-Day Weather Forecast

Advertisements
Track Severe Weather on mobile